createdAt,value
2022-12-14T00:01:39.473Z,100453.66
2022-12-14T00:04:07.308Z,100446.41
2022-12-14T00:06:35.025Z,100440.81
2022-12-14T00:09:04.738Z,100429.75
2022-12-14T00:11:33.751Z,100427.63
2022-12-14T00:14:02.559Z,100426.03
2022-12-14T00:16:31.994Z,100421.88
2022-12-14T00:19:00.862Z,100416.84
2022-12-14T00:21:28.402Z,100416.75
2022-12-14T00:23:57.483Z,100414.97
2022-12-14T00:26:27.364Z,100415.13
2022-12-14T00:28:55.836Z,100402.50
2022-12-14T00:31:23.923Z,100401.63
2022-12-14T00:33:51.604Z,100406.56
2022-12-14T00:36:19.780Z,100407.53
2022-12-14T00:38:46.982Z,100395.81
2022-12-14T00:41:14.187Z,100398.53
2022-12-14T00:43:41.976Z,100409.63
2022-12-14T00:46:09.731Z,100404.53
2022-12-14T00:48:37.026Z,100408.72
2022-12-14T00:51:04.534Z,100411.38
2022-12-14T00:53:31.753Z,100406.81
2022-12-14T00:56:06.464Z,100401.63
2022-12-14T00:58:33.896Z,100398.38
2022-12-14T01:01:06.164Z,100402.44
2022-12-14T01:03:34.489Z,100398.44
2022-12-14T01:06:02.468Z,100398.34
2022-12-14T01:08:36.213Z,100398.66
2022-12-14T01:11:07.921Z,100395.50
2022-12-14T01:13:35.926Z,100398.44
2022-12-14T01:16:08.706Z,100388.38
2022-12-14T01:18:37.054Z,100390.13
2022-12-14T01:21:11.257Z,100391.91
2022-12-14T01:23:38.938Z,100390.88
2022-12-14T01:26:06.417Z,100396.63
2022-12-14T01:28:35.058Z,100394.19
2022-12-14T01:31:30.924Z,100388.13
2022-12-14T01:33:58.799Z,100389.88
2022-12-14T01:36:30.643Z,100399.72
2022-12-14T01:39:00.111Z,100389.22
2022-12-14T01:41:31.786Z,100394.44
2022-12-14T01:44:04.927Z,100384.19
2022-12-14T01:47:01.307Z,100386.13
2022-12-14T01:49:37.158Z,100381.22
2022-12-14T01:52:12.428Z,100376.31
2022-12-14T01:54:48.853Z,100375.06
2022-12-14T01:57:17.670Z,100372.66
2022-12-14T01:59:46.233Z,100381.13
2022-12-14T02:02:15.150Z,100379.22
2022-12-14T02:04:51.429Z,100377.31
2022-12-14T02:07:18.763Z,100377.06
2022-12-14T02:09:47.656Z,100377.84
2022-12-14T02:12:19.319Z,100378.97
2022-12-14T02:14:47.335Z,100367.25
2022-12-14T02:17:15.438Z,100377.50
2022-12-14T02:19:49.448Z,100376.31
2022-12-14T02:22:43.722Z,100374.53
2022-12-14T02:25:53.405Z,100376.34
2022-12-14T02:29:00.697Z,100376.31
2022-12-14T02:31:49.176Z,100368.25
2022-12-14T02:34:42.532Z,100366.09
2022-12-14T02:37:41.704Z,100362.91
2022-12-14T02:40:28.331Z,100361.81
2022-12-14T02:43:03.363Z,100362.41
2022-12-14T02:45:48.155Z,100358.44
2022-12-14T02:48:26.237Z,100360.69
2022-12-14T02:51:03.880Z,100361.56
2022-12-14T02:54:03.985Z,100359.53
2022-12-14T02:56:43.166Z,100353.72
2022-12-14T02:59:11.362Z,100358.00
2022-12-14T03:01:39.494Z,100351.78
2022-12-14T03:04:07.337Z,100358.59
2022-12-14T03:06:34.987Z,100347.63
2022-12-14T03:09:16.258Z,100346.13
2022-12-14T03:11:51.201Z,100342.69
2022-12-14T03:14:30.082Z,100334.13
2022-12-14T03:17:02.384Z,100340.13
2022-12-14T03:19:39.438Z,100344.28
2022-12-14T03:22:15.696Z,100333.25
2022-12-14T03:24:55.715Z,100331.25
2022-12-14T03:27:24.411Z,100321.88
2022-12-14T03:30:02.421Z,100323.38
2022-12-14T03:32:32.147Z,100318.00
2022-12-14T03:35:09.262Z,100316.41
2022-12-14T03:37:52.962Z,100308.25
2022-12-14T03:40:56.060Z,100307.94
2022-12-14T03:43:32.754Z,100307.13
2022-12-14T03:46:13.690Z,100307.88
2022-12-14T03:49:19.082Z,100309.69
2022-12-14T03:51:52.056Z,100305.13
2022-12-14T03:54:36.014Z,100308.41
2022-12-14T03:57:27.528Z,100297.28
2022-12-14T04:00:09.907Z,100300.72
2022-12-14T04:03:08.917Z,100298.97
2022-12-14T04:05:47.023Z,100287.88
2022-12-14T04:08:33.070Z,100286.38
2022-12-14T04:11:19.968Z,100283.72
2022-12-14T04:14:11.841Z,100279.75
2022-12-14T04:16:59.918Z,100277.94
2022-12-14T04:19:37.758Z,100281.28
2022-12-14T04:22:18.033Z,100277.03
2022-12-14T04:25:18.049Z,100274.50
2022-12-14T04:27:54.410Z,100272.63
2022-12-14T04:30:21.756Z,100274.13
2022-12-14T04:33:26.155Z,100270.69
2022-12-14T04:35:56.360Z,100270.88
2022-12-14T04:38:30.210Z,100273.19
2022-12-14T04:40:59.660Z,100269.78
2022-12-14T04:43:31.954Z,100266.19
2022-12-14T04:46:06.904Z,100264.06
2022-12-14T04:48:55.824Z,100255.47
2022-12-14T04:51:48.175Z,100252.22
2022-12-14T04:54:25.904Z,100250.47
2022-12-14T04:57:19.516Z,100254.97
2022-12-14T04:59:47.409Z,100247.66
2022-12-14T05:02:29.691Z,100242.56
2022-12-14T05:05:14.632Z,100238.19
2022-12-14T05:08:02.984Z,100239.72
2022-12-14T05:10:44.885Z,100236.50
2022-12-14T05:13:31.710Z,100241.31
2022-12-14T05:15:59.491Z,100232.81
2022-12-14T05:18:26.932Z,100223.78
2022-12-14T05:20:54.288Z,100228.00
2022-12-14T05:23:22.010Z,100228.88
2022-12-14T05:25:49.360Z,100223.00
2022-12-14T05:28:17.019Z,100217.19
2022-12-14T05:30:49.074Z,100215.22
2022-12-14T05:33:20.493Z,100195.75
2022-12-14T05:35:47.873Z,100203.34
2022-12-14T05:38:15.115Z,100193.25
2022-12-14T05:40:42.432Z,100185.44
2022-12-14T05:43:12.286Z,100187.94
2022-12-14T05:45:39.658Z,100186.41
2022-12-14T05:48:06.977Z,100184.19
2022-12-14T05:50:34.232Z,100179.31
2022-12-14T05:53:01.642Z,100180.00
2022-12-14T05:55:28.976Z,100163.69
2022-12-14T05:57:56.631Z,100172.22
2022-12-14T06:00:23.964Z,100159.31
2022-12-14T06:02:51.438Z,100166.88
2022-12-14T06:05:18.732Z,100165.13
2022-12-14T06:07:46.063Z,100172.94
2022-12-14T06:10:13.251Z,100175.50
2022-12-14T06:12:40.559Z,100172.63
2022-12-14T06:15:08.600Z,100176.91
2022-12-14T06:17:36.465Z,100173.38
2022-12-14T06:20:04.800Z,100171.09
2022-12-14T06:22:32.147Z,100163.50
2022-12-14T06:24:59.522Z,100155.94
2022-12-14T06:27:26.920Z,100160.28
2022-12-14T06:29:54.126Z,100148.81
2022-12-14T06:32:21.281Z,100155.00
2022-12-14T06:34:48.535Z,100155.63
2022-12-14T06:37:16.006Z,100158.31
2022-12-14T06:39:43.158Z,100147.13
2022-12-14T06:42:11.269Z,100145.50
2022-12-14T06:44:38.422Z,100156.94
2022-12-14T06:47:05.717Z,100146.31
2022-12-14T06:49:32.903Z,100152.78
2022-12-14T06:52:00.118Z,100148.81
2022-12-14T06:54:27.535Z,100150.41
2022-12-14T06:56:54.744Z,100145.25
2022-12-14T06:59:22.083Z,100146.94
2022-12-14T07:01:49.809Z,100132.50
2022-12-14T07:04:18.695Z,100137.84
2022-12-14T07:06:45.853Z,100131.09
2022-12-14T07:09:14.142Z,100130.03
2022-12-14T07:11:41.906Z,100128.31
2022-12-14T07:14:11.009Z,100125.59
2022-12-14T07:16:38.120Z,100129.22
2022-12-14T07:19:05.287Z,100128.16
2022-12-14T07:21:36.357Z,100128.13
2022-12-14T07:24:03.716Z,100122.06
2022-12-14T07:26:31.054Z,100118.38
2022-12-14T07:29:00.628Z,100121.03
2022-12-14T07:31:28.974Z,100111.03
2022-12-14T07:33:58.890Z,100106.03
2022-12-14T07:36:27.631Z,100100.94
2022-12-14T07:38:55.783Z,100096.56
2022-12-14T07:41:30.507Z,100094.28
2022-12-14T07:43:59.134Z,100098.34
2022-12-14T07:46:28.097Z,100095.09
2022-12-14T07:48:56.693Z,100100.34
2022-12-14T07:51:26.078Z,100094.28
2022-12-14T07:53:54.611Z,100102.84
2022-12-14T07:56:25.007Z,100099.38
2022-12-14T07:58:52.681Z,100106.53
2022-12-14T08:01:40.623Z,100111.25
2022-12-14T08:04:10.461Z,100104.38
2022-12-14T08:06:38.302Z,100098.81
2022-12-14T08:09:06.985Z,100100.66
2022-12-14T08:11:34.193Z,100100.03
2022-12-14T08:14:04.481Z,100101.06
2022-12-14T08:16:32.165Z,100104.75
2022-12-14T08:19:00.189Z,100099.81
2022-12-14T08:21:28.242Z,100110.25
2022-12-14T08:23:56.069Z,100099.34
2022-12-14T08:26:25.577Z,100093.47
2022-12-14T08:28:57.458Z,100090.28
2022-12-14T08:31:28.225Z,100082.94
2022-12-14T08:33:55.605Z,100084.81
2022-12-14T08:36:27.962Z,100079.09
2022-12-14T08:38:56.880Z,100075.78
2022-12-14T08:41:24.663Z,100076.88
2022-12-14T08:43:54.158Z,100073.72
2022-12-14T08:46:22.161Z,100075.47
2022-12-14T08:48:52.461Z,100071.41
2022-12-14T08:51:20.286Z,100077.69
2022-12-14T08:53:47.835Z,100073.69
2022-12-14T08:56:18.163Z,100067.03
2022-12-14T08:58:45.943Z,100068.88
2022-12-14T09:01:15.915Z,100066.25
2022-12-14T09:03:47.420Z,100066.53
2022-12-14T09:06:21.412Z,100064.97
2022-12-14T09:08:49.770Z,100063.53
2022-12-14T09:11:18.962Z,100069.31
2022-12-14T09:13:46.663Z,100070.09
2022-12-14T09:16:18.545Z,100065.97
2022-12-14T09:18:46.916Z,100057.50
2022-12-14T09:21:14.291Z,100055.72
2022-12-14T09:23:42.231Z,100050.66
2022-12-14T09:26:12.334Z,100048.31
2022-12-14T09:28:40.633Z,100050.97
2022-12-14T09:31:10.570Z,100046.88
2022-12-14T09:33:38.016Z,100040.84
2022-12-14T09:36:07.931Z,100037.50
2022-12-14T09:38:37.809Z,100041.97
2022-12-14T09:41:07.991Z,100031.78
2022-12-14T09:43:36.933Z,100027.72
2022-12-14T09:46:27.650Z,100024.41
2022-12-14T09:48:56.631Z,100020.31
2022-12-14T09:51:35.187Z,100020.66
2022-12-14T09:54:05.927Z,100016.47
2022-12-14T09:56:33.997Z,100004.59
2022-12-14T09:59:02.740Z,100009.00
2022-12-14T10:01:55.522Z,100005.75
2022-12-14T10:05:03.278Z,100000.81
2022-12-14T10:07:53.533Z,99999.41
2022-12-14T10:10:59.943Z,99995.19
2022-12-14T10:13:48.459Z,99992.84
2022-12-14T10:16:35.832Z,99983.34
2022-12-14T10:19:27.704Z,99980.75
2022-12-14T10:22:03.112Z,99983.53
2022-12-14T10:24:44.202Z,99976.59
2022-12-14T10:27:22.071Z,99976.78
2022-12-14T10:29:57.312Z,99972.50
2022-12-14T10:32:36.158Z,99973.50
2022-12-14T10:35:26.944Z,99965.88
2022-12-14T10:38:19.686Z,99963.34
2022-12-14T10:40:50.034Z,99963.34
2022-12-14T10:43:26.373Z,99961.66
2022-12-14T10:46:14.885Z,99950.59
2022-12-14T10:49:00.426Z,99946.34
2022-12-14T10:51:46.855Z,99942.94
2022-12-14T10:54:34.067Z,99939.38
2022-12-14T10:57:01.560Z,99933.25
2022-12-14T10:59:38.400Z,99926.50
2022-12-14T11:02:17.062Z,99923.84
2022-12-14T11:05:13.849Z,99921.19
2022-12-14T11:07:43.339Z,99925.44
2022-12-14T11:10:13.814Z,99924.56
2022-12-14T11:12:41.812Z,99918.63
2022-12-14T11:15:24.244Z,99917.84
2022-12-14T11:18:01.993Z,99917.94
2022-12-14T11:20:29.685Z,99912.00
2022-12-14T11:23:04.470Z,99916.28
2022-12-14T11:25:49.517Z,99913.69
2022-12-14T11:28:38.771Z,99904.50
2022-12-14T11:31:11.994Z,99911.34
2022-12-14T11:33:44.787Z,99906.25
2022-12-14T11:36:30.017Z,99899.50
2022-12-14T11:39:00.739Z,99900.41
2022-12-14T11:41:38.329Z,99896.13
2022-12-14T11:44:14.652Z,99900.38
2022-12-14T11:47:02.608Z,99894.41
2022-12-14T11:49:40.112Z,99897.06
2022-12-14T11:52:15.433Z,99897.97
2022-12-14T11:54:50.023Z,99896.31
2022-12-14T11:57:31.488Z,99892.91
2022-12-14T12:00:06.414Z,99889.47
2022-12-14T12:02:35.274Z,99890.41
2022-12-14T12:05:20.271Z,99883.72
2022-12-14T12:07:50.683Z,99887.13
2022-12-14T12:10:38.626Z,99890.63
2022-12-14T12:13:07.260Z,99880.31
2022-12-14T12:15:49.925Z,99887.97
2022-12-14T12:18:41.648Z,99888.94
2022-12-14T12:21:29.405Z,99883.00
2022-12-14T12:24:22.192Z,99877.84
2022-12-14T12:26:58.898Z,99877.84
2022-12-14T12:29:49.429Z,99871.84
2022-12-14T12:32:25.675Z,99865.75
2022-12-14T12:35:14.724Z,99862.31
2022-12-14T12:37:45.793Z,99857.00
2022-12-14T12:40:24.460Z,99851.88
2022-12-14T12:43:03.610Z,99854.28
2022-12-14T12:45:32.109Z,99853.53
2022-12-14T12:48:23.185Z,99854.31
2022-12-14T12:50:59.697Z,99857.59
2022-12-14T12:53:47.233Z,99857.69
2022-12-14T12:56:22.063Z,99857.63
2022-12-14T12:58:52.930Z,99861.78
2022-12-14T13:01:31.106Z,99855.84
2022-12-14T13:04:03.472Z,99848.06
2022-12-14T13:06:40.534Z,99847.22
2022-12-14T13:09:18.231Z,99842.06
2022-12-14T13:11:46.020Z,99839.56
2022-12-14T13:14:27.977Z,99838.63
2022-12-14T13:16:55.781Z,99825.84
2022-12-14T13:19:54.414Z,99828.41
2022-12-14T13:22:31.197Z,99830.00
2022-12-14T13:25:03.596Z,99817.19
2022-12-14T13:27:35.469Z,99819.78
2022-12-14T13:30:18.677Z,99823.16
2022-12-14T13:33:23.486Z,99823.97
2022-12-14T13:36:20.468Z,99823.13
2022-12-14T13:38:58.711Z,99821.09
2022-12-14T13:41:48.685Z,99820.25
2022-12-14T13:44:34.785Z,99813.53
2022-12-14T13:47:06.485Z,99816.84
2022-12-14T13:49:34.039Z,99819.31
2022-12-14T13:52:01.714Z,99810.72
2022-12-14T13:54:36.017Z,99809.88
2022-12-14T13:57:12.403Z,99808.75
2022-12-14T13:59:44.453Z,99809.59
2022-12-14T14:02:30.018Z,99801.91
2022-12-14T14:05:16.276Z,99809.78
2022-12-14T14:07:55.895Z,99805.44
2022-12-14T14:10:38.950Z,99796.88
2022-12-14T14:13:27.976Z,99790.00
2022-12-14T14:16:27.989Z,99799.34
2022-12-14T14:19:04.629Z,99792.34
2022-12-14T14:22:06.014Z,99788.97
2022-12-14T14:24:52.453Z,99783.13
2022-12-14T14:27:21.769Z,99777.84
2022-12-14T14:29:49.394Z,99777.88
2022-12-14T14:32:38.928Z,99777.81
2022-12-14T14:35:27.462Z,99773.34
2022-12-14T14:38:00.237Z,99771.63
2022-12-14T14:40:51.314Z,99772.53
2022-12-14T14:43:29.673Z,99776.88
2022-12-14T14:46:00.673Z,99779.34
2022-12-14T14:48:40.167Z,99782.69
2022-12-14T14:51:20.494Z,99779.34
2022-12-14T14:53:50.433Z,99777.66
2022-12-14T14:56:38.361Z,99776.84
2022-12-14T14:59:17.818Z,99777.63
2022-12-14T15:02:00.582Z,99779.31
2022-12-14T15:04:47.722Z,99780.03
2022-12-14T15:07:21.963Z,99790.22
2022-12-14T15:09:52.926Z,99778.25
2022-12-14T15:12:41.683Z,99775.69
2022-12-14T15:15:21.343Z,99767.09
2022-12-14T15:17:49.778Z,99778.22
2022-12-14T15:20:26.776Z,99784.16
2022-12-14T15:22:55.941Z,99781.63
2022-12-14T15:25:32.124Z,99773.84
2022-12-14T15:28:05.420Z,99781.53
2022-12-14T15:30:32.775Z,99780.66
2022-12-14T15:33:09.565Z,99778.94
2022-12-14T15:35:39.434Z,99780.56
2022-12-14T15:38:12.786Z,99785.69
2022-12-14T15:40:41.218Z,99784.81
2022-12-14T15:43:20.869Z,99779.66
2022-12-14T15:45:53.190Z,99777.09
2022-12-14T15:48:30.934Z,99772.81
2022-12-14T15:51:06.239Z,99773.63
2022-12-14T15:53:37.374Z,99767.50
2022-12-14T15:56:28.444Z,99779.44
2022-12-14T15:58:58.108Z,99764.03
2022-12-14T16:01:39.163Z,99775.91
2022-12-14T16:04:12.252Z,99773.22
2022-12-14T16:06:45.769Z,99771.50
2022-12-14T16:09:27.331Z,99760.34
2022-12-14T16:12:07.040Z,99766.19
2022-12-14T16:14:48.125Z,99754.22
2022-12-14T16:17:22.989Z,99763.63
2022-12-14T16:19:59.452Z,99759.19
2022-12-14T16:22:32.509Z,99758.44
2022-12-14T16:25:11.687Z,99754.06
2022-12-14T16:27:39.935Z,99751.56
2022-12-14T16:30:27.686Z,99758.34
2022-12-14T16:33:16.342Z,99747.19
2022-12-14T16:35:45.024Z,99754.81
2022-12-14T16:38:16.738Z,99751.34
2022-12-14T16:40:57.522Z,99759.84
2022-12-14T16:43:43.274Z,99763.16
2022-12-14T16:46:11.849Z,99754.59
2022-12-14T16:48:41.988Z,99766.50
2022-12-14T16:51:44.892Z,99765.59
2022-12-14T16:54:25.218Z,99761.22
2022-12-14T16:56:57.976Z,99770.44
2022-12-14T16:59:44.134Z,99768.84
2022-12-14T17:02:55.131Z,99757.69
2022-12-14T17:05:23.739Z,99775.44
2022-12-14T17:07:50.896Z,99771.13
2022-12-14T17:10:20.761Z,99771.06
2022-12-14T17:12:49.030Z,99766.75
2022-12-14T17:15:18.512Z,99765.88
2022-12-14T17:17:49.346Z,99759.91
2022-12-14T17:20:27.759Z,99763.38
2022-12-14T17:22:58.662Z,99768.44
2022-12-14T17:25:27.274Z,99767.47
2022-12-14T17:27:54.651Z,99767.53
2022-12-14T17:30:24.320Z,99760.59
2022-12-14T17:32:53.958Z,99771.69
2022-12-14T17:35:30.015Z,99769.19
2022-12-14T17:37:57.597Z,99769.91
2022-12-14T17:40:25.964Z,99773.31
2022-12-14T17:42:55.143Z,99770.72
2022-12-14T17:45:26.570Z,99771.69
2022-12-14T17:47:54.555Z,99772.34
2022-12-14T17:50:22.337Z,99772.34
2022-12-14T17:52:53.467Z,99770.63
2022-12-14T17:55:25.418Z,99779.06
2022-12-14T17:57:54.479Z,99769.66
2022-12-14T18:00:43.366Z,99782.44
2022-12-14T18:03:11.923Z,99776.28
2022-12-14T18:05:48.326Z,99780.56
2022-12-14T18:08:19.079Z,99779.66
2022-12-14T18:10:47.654Z,99783.84
2022-12-14T18:13:15.684Z,99784.81
2022-12-14T18:15:49.800Z,99780.63
2022-12-14T18:18:19.049Z,99778.06
2022-12-14T18:20:50.695Z,99778.00
2022-12-14T18:23:21.685Z,99776.16
2022-12-14T18:25:56.082Z,99774.47
2022-12-14T18:28:30.155Z,99774.41
2022-12-14T18:31:02.170Z,99774.34
2022-12-14T18:33:29.897Z,99770.06
2022-12-14T18:35:57.710Z,99772.63
2022-12-14T18:38:25.669Z,99776.03
2022-12-14T18:40:55.144Z,99771.78
2022-12-14T18:43:25.397Z,99768.31
2022-12-14T18:45:54.249Z,99768.25
2022-12-14T18:48:22.371Z,99774.31
2022-12-14T18:50:50.562Z,99776.81
2022-12-14T18:53:20.834Z,99758.09
2022-12-14T18:55:48.709Z,99779.06
2022-12-14T18:58:36.322Z,99778.31
2022-12-14T19:01:03.767Z,99776.56
2022-12-14T19:03:32.716Z,99787.50
2022-12-14T19:06:42.149Z,99790.97
2022-12-14T19:08:57.125Z,99782.25
2022-12-14T19:11:39.098Z,99790.84
2022-12-14T19:14:07.076Z,99791.41
2022-12-14T19:16:35.014Z,99795.78
2022-12-14T19:19:05.285Z,99788.91
2022-12-14T19:21:32.716Z,99794.88
2022-12-14T19:24:01.163Z,99789.63
2022-12-14T19:26:31.298Z,99795.44
2022-12-14T19:28:58.644Z,99802.19
2022-12-14T19:31:26.164Z,99799.78
2022-12-14T19:33:54.028Z,99798.09
2022-12-14T19:36:21.463Z,99792.91
2022-12-14T19:38:49.318Z,99792.09
2022-12-14T19:41:20.520Z,99791.16
2022-12-14T19:43:48.749Z,99783.31
2022-12-14T19:46:18.171Z,99777.31
2022-12-14T19:48:46.283Z,99783.28
2022-12-14T19:51:14.528Z,99792.56
2022-12-14T19:53:42.827Z,99801.09
2022-12-14T19:56:10.606Z,99798.47
2022-12-14T19:58:40.947Z,99799.31
2022-12-14T20:01:09.773Z,99803.44
2022-12-14T20:03:40.340Z,99799.94
2022-12-14T20:06:10.462Z,99798.31
2022-12-14T20:08:39.352Z,99801.72
2022-12-14T20:11:11.058Z,99791.41
2022-12-14T20:13:38.391Z,99795.63
2022-12-14T20:16:05.997Z,99800.69
2022-12-14T20:18:33.648Z,99800.66
2022-12-14T20:21:06.045Z,99807.44
2022-12-14T20:23:36.277Z,99809.06
2022-12-14T20:26:06.848Z,99808.75
2022-12-14T20:28:34.362Z,99807.88
2022-12-14T20:31:04.484Z,99808.69
2022-12-14T20:33:32.833Z,99811.03
2022-12-14T20:36:00.579Z,99813.53
2022-12-14T20:38:28.326Z,99804.97
2022-12-14T20:40:56.145Z,99805.09
2022-12-14T20:43:23.426Z,99804.03
2022-12-14T20:45:50.620Z,99805.09
2022-12-14T20:48:17.776Z,99814.47
2022-12-14T20:50:50.533Z,99806.63
2022-12-14T20:53:20.010Z,99806.59
2022-12-14T20:55:47.182Z,99815.91
2022-12-14T20:58:14.451Z,99806.47
2022-12-14T21:00:41.846Z,99809.81
2022-12-14T21:03:09.271Z,99802.81
2022-12-14T21:05:41.716Z,99808.75
2022-12-14T21:08:09.593Z,99807.94
2022-12-14T21:10:37.216Z,99813.78
2022-12-14T21:13:07.619Z,99806.91
2022-12-14T21:15:35.682Z,99809.38
2022-12-14T21:18:02.953Z,99818.72
2022-12-14T21:20:30.374Z,99816.88
2022-12-14T21:22:57.610Z,99813.97
2022-12-14T21:25:24.829Z,99817.88
2022-12-14T21:27:52.067Z,99817.28
2022-12-14T21:30:19.320Z,99820.97
2022-12-14T21:32:46.562Z,99825.38
2022-12-14T21:35:17.641Z,99821.91
2022-12-14T21:37:45.213Z,99819.25
2022-12-14T21:40:33.018Z,99817.47
2022-12-14T21:43:00.320Z,99822.53
2022-12-14T21:45:30.033Z,99821.44
2022-12-14T21:48:00.150Z,99830.69
2022-12-14T21:50:27.454Z,99830.59
2022-12-14T21:52:54.728Z,99834.88
2022-12-14T21:55:21.948Z,99833.22
2022-12-14T21:58:08.114Z,99835.53
2022-12-14T22:00:37.170Z,99838.19
2022-12-14T22:03:05.347Z,99838.19
2022-12-14T22:05:32.942Z,99833.84
2022-12-14T22:08:00.722Z,99836.41
2022-12-14T22:10:27.930Z,99835.47
2022-12-14T22:12:55.181Z,99842.34
2022-12-14T22:15:22.400Z,99838.00
2022-12-14T22:17:52.565Z,99842.72
2022-12-14T22:20:19.935Z,99838.28
2022-12-14T22:22:47.334Z,99846.91
2022-12-14T22:25:15.523Z,99844.03
2022-12-14T22:27:42.878Z,99850.84
2022-12-14T22:30:16.794Z,99856.09
2022-12-14T22:32:44.030Z,99861.22
2022-12-14T22:35:11.373Z,99860.38
2022-12-14T22:37:38.713Z,99856.91
2022-12-14T22:40:06.977Z,99859.41
2022-12-14T22:42:34.848Z,99862.81
2022-12-14T22:45:02.007Z,99861.03
2022-12-14T22:47:29.233Z,99865.19
2022-12-14T22:49:56.377Z,99859.25
2022-12-14T22:52:25.130Z,99855.00
2022-12-14T22:54:54.023Z,99860.88
2022-12-14T22:57:21.704Z,99852.44
2022-12-14T22:59:59.594Z,99851.31
2022-12-14T23:02:27.964Z,99850.56
2022-12-14T23:04:55.819Z,99849.03
2022-12-14T23:07:23.304Z,99853.94
2022-12-14T23:10:08.995Z,99857.16
2022-12-14T23:12:55.739Z,99858.97
2022-12-14T23:15:41.527Z,99864.47
2022-12-14T23:18:27.904Z,99866.41
2022-12-14T23:21:13.797Z,99860.59
2022-12-14T23:24:01.105Z,99861.56
2022-12-14T23:26:47.521Z,99862.72
2022-12-14T23:29:33.748Z,99870.31
2022-12-14T23:32:19.413Z,99868.56
2022-12-14T23:35:05.338Z,99868.47
2022-12-14T23:37:51.030Z,99862.25
2022-12-14T23:40:36.690Z,99859.81
2022-12-14T23:43:35.549Z,99864.28
2022-12-14T23:46:21.927Z,99873.03
2022-12-14T23:49:12.028Z,99880.63
2022-12-14T23:52:01.347Z,99883.25
2022-12-14T23:54:47.924Z,99881.38
2022-12-14T23:57:33.688Z,99883.31
